O Brien, Florida
Current Conditions -  °F | °C
As of 2:35 PM on Monday 20 Oct 2014 (Local Time) from K24J Reporting Station
Few Clouds Few Clouds  
Wind Chill: 84°   Ceiling: Unl
Heat Index: 85°   Visibility: 10mi
Dew Point: 63°   Wind: 5mph
Humidity: 48%   Direction: 190°S
Pressure: 30.01"   Gusts: NA
Location:  30.0381°N, 82.9437°W
Report Text: K24J 201835Z AUTO 19004KT 10SM FEW050 29/17 A3001 RMK AO1
Loading
Personal Weather Stations






























Interactive Weather Map
Tropical Storm Tracking
New forecast layout! Learn more

10-Day Weather Forecast

Advertisements
Track Severe Weather on mobile